Aeroporto :
LOGIN :

Iscrizione | Disclaimer

   EN    FR    IT 

 










Sommario :    VFR   VFR Marginale   IFR   IFR Intensivo   IFR Molto Intensivo
Visibilità : 
Base nubi : 
>= 8 km
>= 3000ft
5 / 8 km
1000 / 3000 ft
1500m / 5 km
500 / 1000 ft
800 / 1500m
200 / 500 ft
< 800m
< 200 ft
Simboli :   Temporali  Nebbia  Neve Forte  Precipitazioni Forti  Vento > 20 kt
SIGMETs :   Varie  Temporali  Ghiacco  Turbolenza  Onda orograficha  Ceneri Vulcaniche






- Altitudine del aeroporto : 1375 ft
- Codice IATA : SCV


LRSV - Suceava Stefan cel Mare

ULTIMO METAR :
  • 281230Z 36006KT CAVOK 14/M03 Q1013

METARs OBSOLETI :
  • 281200Z 31006KT 280V360 CAVOK 13/M01 Q1014
  • 281130Z 33007KT CAVOK 13/M02 Q1014
  • 281100Z 31009KT CAVOK 12/M00 Q1014
  • 281030Z 31008KT CAVOK 12/00 Q1015
  • 281000Z 30008KT CAVOK 11/01 Q1015

TAF TAF LRSV
Valido dal 28 a 12 ore il 28 a 21 ore UTC


281100Z 2812/2821 32008KT CAVOK



MetMap, La meteo Aeronautica in un colpo d'occhio ! - Copyright ORBIFLY Dicembre 2007 - Disclaimer

ORBIFLY MET'MAP TEAM :

Programmazione e sviluppo : Alexandra Zaïnal
Concezione : Baudouin d'Aumeries
Aiuto per la programmazione : Marc-Olivier Méhu
Supporto tecnico e logistico : Manuel Goepfert
Aiuto per la traduzione : Arnaldo La Scala

Contatto : metmap@orbifly.com




FONTI E CREDITI :

   NOAA